sensor_id;sensor_type;location;lat;lon;timestamp;pressure;altitude;pressure_sealevel;temperature;humidity
70370;BME280;57790;51.356;-2.906;2022-09-20T00:01:54;102734.06;;;14.50;66.56
70370;BME280;57790;51.356;-2.906;2022-09-20T00:04:55;102733.22;;;14.49;66.93
70370;BME280;57790;51.356;-2.906;2022-09-20T00:07:55;102732.63;;;14.46;66.50
70370;BME280;57790;51.356;-2.906;2022-09-20T00:10:58;102738.09;;;14.44;66.74
70370;BME280;57790;51.356;-2.906;2022-09-20T00:14:03;102738.34;;;14.41;66.92
70370;BME280;57790;51.356;-2.906;2022-09-20T00:17:05;102727.97;;;14.38;67.07
70370;BME280;57790;51.356;-2.906;2022-09-20T00:20:05;102728.09;;;14.37;67.48
70370;BME280;57790;51.356;-2.906;2022-09-20T00:23:06;102733.44;;;14.37;67.55
70370;BME280;57790;51.356;-2.906;2022-09-20T00:26:06;102728.25;;;14.35;67.44
70370;BME280;57790;51.356;-2.906;2022-09-20T00:29:07;102734.56;;;14.34;67.44
70370;BME280;57790;51.356;-2.906;2022-09-20T00:32:07;102730.22;;;14.33;67.81
70370;BME280;57790;51.356;-2.906;2022-09-20T00:35:08;102733.13;;;14.30;67.74
70370;BME280;57790;51.356;-2.906;2022-09-20T00:38:10;102733.53;;;14.25;68.01
70370;BME280;57790;51.356;-2.906;2022-09-20T00:41:13;102729.16;;;14.15;67.68
70370;BME280;57790;51.356;-2.906;2022-09-20T00:44:39;102736.88;;;14.08;67.97
70370;BME280;57790;51.356;-2.906;2022-09-20T00:51:08;102726.22;;;14.08;67.79
70370;BME280;57790;51.356;-2.906;2022-09-20T00:54:12;102731.69;;;14.07;67.92
70370;BME280;57790;51.356;-2.906;2022-09-20T00:57:14;102737.03;;;14.07;67.77
70370;BME280;57790;51.356;-2.906;2022-09-20T01:00:15;102729.31;;;14.04;67.80
70370;BME280;57790;51.356;-2.906;2022-09-20T01:03:18;102736.44;;;14.03;67.99
70370;BME280;57790;51.356;-2.906;2022-09-20T01:06:22;102733.34;;;13.98;68.28
70370;BME280;57790;51.356;-2.906;2022-09-20T01:09:22;102735.16;;;13.97;67.82
70370;BME280;57790;51.356;-2.906;2022-09-20T01:12:26;102738.09;;;13.94;67.78
70370;BME280;57790;51.356;-2.906;2022-09-20T01:15:29;102741.03;;;13.91;67.94
70370;BME280;57790;51.356;-2.906;2022-09-20T01:18:32;102734.16;;;13.89;68.17
70370;BME280;57790;51.356;-2.906;2022-09-20T01:21:33;102741.56;;;13.85;68.07
70370;BME280;57790;51.356;-2.906;2022-09-20T01:25:02;102737.06;;;13.86;68.22
70370;BME280;57790;51.356;-2.906;2022-09-20T01:28:06;102739.03;;;13.84;68.20
70370;BME280;57790;51.356;-2.906;2022-09-20T01:31:14;102740.16;;;13.81;68.29
70370;BME280;57790;51.356;-2.906;2022-09-20T01:34:26;102746.47;;;13.80;68.12
70370;BME280;57790;51.356;-2.906;2022-09-20T01:41:14;102732.72;;;13.75;68.28
70370;BME280;57790;51.356;-2.906;2022-09-20T01:47:45;102738.41;;;13.70;68.41
70370;BME280;57790;51.356;-2.906;2022-09-20T02:17:54;102753.47;;;13.51;68.24
70370;BME280;57790;51.356;-2.906;2022-09-20T02:21:03;102744.78;;;13.49;68.33
70370;BME280;57790;51.356;-2.906;2022-09-20T02:47:41;102750.72;;;13.31;68.30
70370;BME280;57790;51.356;-2.906;2022-09-20T02:54:20;102741.41;;;13.26;68.22
70370;BME280;57790;51.356;-2.906;2022-09-20T02:57:39;102742.25;;;13.26;68.56
70370;BME280;57790;51.356;-2.906;2022-09-20T03:01:06;102739.00;;;13.23;68.68
70370;BME280;57790;51.356;-2.906;2022-09-20T03:08:03;102734.94;;;13.19;68.54
70370;BME280;57790;51.356;-2.906;2022-09-20T03:17:55;102724.75;;;13.13;68.58
70370;BME280;57790;51.356;-2.906;2022-09-20T03:31:09;102722.03;;;13.03;68.80
70370;BME280;57790;51.356;-2.906;2022-09-20T03:40:55;102719.88;;;12.97;68.60
70370;BME280;57790;51.356;-2.906;2022-09-20T04:01:36;102704.78;;;12.86;68.66
70370;BME280;57790;51.356;-2.906;2022-09-20T04:04:52;102702.25;;;12.85;68.77
70370;BME280;57790;51.356;-2.906;2022-09-20T04:14:56;102708.97;;;12.79;68.71
70370;BME280;57790;51.356;-2.906;2022-09-20T04:21:38;102705.00;;;12.73;69.17
70370;BME280;57790;51.356;-2.906;2022-09-20T04:24:53;102713.00;;;12.73;69.28
70370;BME280;57790;51.356;-2.906;2022-09-20T04:28:00;102703.41;;;12.71;69.14
70370;BME280;57790;51.356;-2.906;2022-09-20T04:34:31;102697.66;;;12.66;69.37
70370;BME280;57790;51.356;-2.906;2022-09-20T04:37:52;102701.03;;;12.68;69.41
70370;BME280;57790;51.356;-2.906;2022-09-20T04:55:07;102706.25;;;12.58;69.25
70370;BME280;57790;51.356;-2.906;2022-09-20T05:05:47;102709.44;;;12.52;69.42
70370;BME280;57790;51.356;-2.906;2022-09-20T05:12:08;102719.34;;;12.50;69.38
70370;BME280;57790;51.356;-2.906;2022-09-20T05:26:36;102736.53;;;12.46;69.51
70370;BME280;57790;51.356;-2.906;2022-09-20T05:29:31;102733.13;;;12.44;69.53
70370;BME280;57790;51.356;-2.906;2022-09-20T05:33:03;102738.38;;;12.45;69.63
70370;BME280;57790;51.356;-2.906;2022-09-20T05:36:38;102736.78;;;12.43;69.86
70370;BME280;57790;51.356;-2.906;2022-09-20T05:42:55;102735.94;;;12.42;70.11
70370;BME280;57790;51.356;-2.906;2022-09-20T05:46:31;102743.78;;;12.44;69.91
70370;BME280;57790;51.356;-2.906;2022-09-20T06:00:21;102753.56;;;12.43;70.29
70370;BME280;57790;51.356;-2.906;2022-09-20T06:03:40;102754.56;;;12.42;70.01
70370;BME280;57790;51.356;-2.906;2022-09-20T06:07:06;102763.28;;;12.44;70.17
70370;BME280;57790;51.356;-2.906;2022-09-20T06:10:33;102762.31;;;12.45;70.28
70370;BME280;57790;51.356;-2.906;2022-09-20T06:17:05;102760.38;;;12.47;70.14
70370;BME280;57790;51.356;-2.906;2022-09-20T06:20:32;102763.88;;;12.48;70.46
70370;BME280;57790;51.356;-2.906;2022-09-20T06:23:35;102762.91;;;12.49;70.71
70370;BME280;57790;51.356;-2.906;2022-09-20T06:26:36;102766.28;;;12.51;70.63
70370;BME280;57790;51.356;-2.906;2022-09-20T06:29:40;102770.38;;;12.55;70.63
70370;BME280;57790;51.356;-2.906;2022-09-20T06:32:59;102772.91;;;12.57;70.38
70370;BME280;57790;51.356;-2.906;2022-09-20T06:36:11;102764.78;;;12.58;70.24
70370;BME280;57790;51.356;-2.906;2022-09-20T06:39:42;102763.47;;;12.64;70.55
70370;BME280;57790;51.356;-2.906;2022-09-20T06:43:03;102777.63;;;12.53;71.04
70370;BME280;57790;51.356;-2.906;2022-09-20T06:46:04;102775.09;;;12.51;71.10
70370;BME280;57790;51.356;-2.906;2022-09-20T06:49:04;102780.16;;;12.55;71.28
70370;BME280;57790;51.356;-2.906;2022-09-20T06:52:13;102781.25;;;12.63;71.56
70370;BME280;57790;51.356;-2.906;2022-09-20T06:55:19;102777.69;;;12.74;71.22
70370;BME280;57790;51.356;-2.906;2022-09-20T06:58:20;102785.28;;;12.90;71.23
70370;BME280;57790;51.356;-2.906;2022-09-20T07:01:21;102780.13;;;12.98;71.98
70370;BME280;57790;51.356;-2.906;2022-09-20T07:04:22;102785.41;;;13.09;71.48
70370;BME280;57790;51.356;-2.906;2022-09-20T07:07:24;102789.50;;;13.13;71.36
70370;BME280;57790;51.356;-2.906;2022-09-20T07:10:26;102792.28;;;13.23;71.11
70370;BME280;57790;51.356;-2.906;2022-09-20T07:13:29;102787.53;;;13.26;71.63
70370;BME280;57790;51.356;-2.906;2022-09-20T07:16:29;102783.38;;;13.33;71.61
70370;BME280;57790;51.356;-2.906;2022-09-20T07:19:29;102783.13;;;13.36;72.20
70370;BME280;57790;51.356;-2.906;2022-09-20T07:22:30;102782.59;;;13.43;72.28
70370;BME280;57790;51.356;-2.906;2022-09-20T07:25:31;102787.28;;;13.50;71.65
70370;BME280;57790;51.356;-2.906;2022-09-20T07:28:33;102786.03;;;13.54;72.72
70370;BME280;57790;51.356;-2.906;2022-09-20T07:31:34;102786.81;;;13.66;72.53
70370;BME280;57790;51.356;-2.906;2022-09-20T07:34:34;102789.53;;;13.76;72.72
70370;BME280;57790;51.356;-2.906;2022-09-20T07:37:35;102787.59;;;13.87;72.84
70370;BME280;57790;51.356;-2.906;2022-09-20T07:40:36;102787.09;;;13.93;72.77
70370;BME280;57790;51.356;-2.906;2022-09-20T07:43:36;102778.66;;;13.98;73.28
70370;BME280;57790;51.356;-2.906;2022-09-20T07:46:37;102785.03;;;14.07;73.21
70370;BME280;57790;51.356;-2.906;2022-09-20T07:49:38;102786.72;;;14.17;72.86
70370;BME280;57790;51.356;-2.906;2022-09-20T07:52:39;102785.09;;;14.26;72.76
70370;BME280;57790;51.356;-2.906;2022-09-20T07:55:39;102791.81;;;14.30;72.64
70370;BME280;57790;51.356;-2.906;2022-09-20T07:58:40;102780.06;;;14.33;72.34
70370;BME280;57790;51.356;-2.906;2022-09-20T08:01:42;102796.81;;;14.44;72.01
70370;BME280;57790;51.356;-2.906;2022-09-20T08:04:43;102800.22;;;14.56;71.99
70370;BME280;57790;51.356;-2.906;2022-09-20T08:07:43;102803.03;;;14.74;71.93
70370;BME280;57790;51.356;-2.906;2022-09-20T08:10:44;102807.16;;;14.97;71.24
70370;BME280;57790;51.356;-2.906;2022-09-20T08:13:47;102802.06;;;15.33;70.13
70370;BME280;57790;51.356;-2.906;2022-09-20T08:16:48;102799.00;;;15.94;68.47
70370;BME280;57790;51.356;-2.906;2022-09-20T08:19:49;102806.66;;;16.34;67.18
70370;BME280;57790;51.356;-2.906;2022-09-20T08:22:52;102805.91;;;16.24;67.08
70370;BME280;57790;51.356;-2.906;2022-09-20T08:25:55;102805.63;;;16.17;67.69
70370;BME280;57790;51.356;-2.906;2022-09-20T08:28:58;102814.56;;;16.08;67.56
70370;BME280;57790;51.356;-2.906;2022-09-20T08:31:58;102814.72;;;16.06;67.76
70370;BME280;57790;51.356;-2.906;2022-09-20T08:35:01;102815.81;;;16.04;67.90
70370;BME280;57790;51.356;-2.906;2022-09-20T08:38:01;102822.88;;;16.05;67.82
70370;BME280;57790;51.356;-2.906;2022-09-20T08:41:28;102822.75;;;16.06;68.17
70370;BME280;57790;51.356;-2.906;2022-09-20T08:44:37;102826.03;;;16.18;68.02
70370;BME280;57790;51.356;-2.906;2022-09-20T08:47:48;102823.44;;;16.36;67.52
70370;BME280;57790;51.356;-2.906;2022-09-20T08:50:50;102810.44;;;16.69;66.69
70370;BME280;57790;51.356;-2.906;2022-09-20T08:53:52;102816.03;;;17.72;64.41
70370;BME280;57790;51.356;-2.906;2022-09-20T08:56:53;102820.78;;;18.21;62.75
70370;BME280;57790;51.356;-2.906;2022-09-20T08:59:54;102803.72;;;19.05;61.00
70370;BME280;57790;51.356;-2.906;2022-09-20T09:02:56;102807.97;;;19.95;58.66
70370;BME280;57790;51.356;-2.906;2022-09-20T09:05:57;102810.34;;;20.68;55.00
70370;BME280;57790;51.356;-2.906;2022-09-20T09:08:58;102806.91;;;21.28;52.87
70370;BME280;57790;51.356;-2.906;2022-09-20T09:11:59;102811.16;;;21.60;51.38
70370;BME280;57790;51.356;-2.906;2022-09-20T09:15:08;102804.78;;;21.53;50.61
70370;BME280;57790;51.356;-2.906;2022-09-20T09:18:20;102816.88;;;21.20;51.16
70370;BME280;57790;51.356;-2.906;2022-09-20T09:21:27;102818.06;;;20.48;53.25
70370;BME280;57790;51.356;-2.906;2022-09-20T09:24:29;102824.78;;;20.05;54.00
70370;BME280;57790;51.356;-2.906;2022-09-20T09:27:32;102820.66;;;19.78;54.75
70370;BME280;57790;51.356;-2.906;2022-09-20T09:30:39;102821.03;;;19.59;55.63
70370;BME280;57790;51.356;-2.906;2022-09-20T09:33:43;102833.31;;;19.45;56.13
70370;BME280;57790;51.356;-2.906;2022-09-20T09:36:46;102840.19;;;19.31;55.83
70370;BME280;57790;51.356;-2.906;2022-09-20T09:40:05;102832.28;;;19.22;56.58
70370;BME280;57790;51.356;-2.906;2022-09-20T09:43:20;102834.50;;;19.18;56.72
70370;BME280;57790;51.356;-2.906;2022-09-20T09:46:23;102840.03;;;19.17;57.10
70370;BME280;57790;51.356;-2.906;2022-09-20T09:49:30;102840.69;;;19.19;57.19
70370;BME280;57790;51.356;-2.906;2022-09-20T09:52:33;102838.50;;;19.22;56.64
70370;BME280;57790;51.356;-2.906;2022-09-20T09:55:54;102836.84;;;19.29;56.53
70370;BME280;57790;51.356;-2.906;2022-09-20T10:00:18;102838.69;;;19.37;56.26
70370;BME280;57790;51.356;-2.906;2022-09-20T10:03:06;102847.59;;;19.46;55.04
70370;BME280;57790;51.356;-2.906;2022-09-20T10:06:20;102837.03;;;19.60;54.50
70370;BME280;57790;51.356;-2.906;2022-09-20T10:09:32;102846.56;;;19.79;54.22
70370;BME280;57790;51.356;-2.906;2022-09-20T10:19:34;102839.25;;;20.83;52.56
70370;BME280;57790;51.356;-2.906;2022-09-20T10:23:31;102841.69;;;21.61;49.99
70370;BME280;57790;51.356;-2.906;2022-09-20T10:30:03;102842.13;;;22.17;48.38
70370;BME280;57790;51.356;-2.906;2022-09-20T10:36:59;102844.50;;;21.97;48.64
70370;BME280;57790;51.356;-2.906;2022-09-20T10:40:32;102850.91;;;21.81;48.44
70370;BME280;57790;51.356;-2.906;2022-09-20T10:47:11;102843.16;;;21.63;48.94
70370;BME280;57790;51.356;-2.906;2022-09-20T10:50:23;102836.09;;;21.62;48.60
70370;BME280;57790;51.356;-2.906;2022-09-20T10:56:38;102822.34;;;21.87;47.81
70370;BME280;57790;51.356;-2.906;2022-09-20T11:03:15;102825.31;;;22.21;46.98
70370;BME280;57790;51.356;-2.906;2022-09-20T11:09:40;102822.16;;;22.33;47.18
70370;BME280;57790;51.356;-2.906;2022-09-20T11:12:57;102820.09;;;22.35;46.90
70370;BME280;57790;51.356;-2.906;2022-09-20T11:16:08;102822.06;;;22.62;46.40
70370;BME280;57790;51.356;-2.906;2022-09-20T11:19:19;102818.69;;;24.01;43.40
70370;BME280;57790;51.356;-2.906;2022-09-20T11:22:28;102817.53;;;24.24;43.06
70370;BME280;57790;51.356;-2.906;2022-09-20T11:25:36;102822.19;;;24.37;42.46
70370;BME280;57790;51.356;-2.906;2022-09-20T11:28:52;102815.06;;;25.30;40.15
70370;BME280;57790;51.356;-2.906;2022-09-20T11:32:14;102803.56;;;26.25;37.91
70370;BME280;57790;51.356;-2.906;2022-09-20T11:35:25;102806.78;;;26.85;36.75
70370;BME280;57790;51.356;-2.906;2022-09-20T11:41:28;102806.44;;;27.75;35.23
70370;BME280;57790;51.356;-2.906;2022-09-20T11:44:30;102810.38;;;28.15;35.27
70370;BME280;57790;51.356;-2.906;2022-09-20T11:47:37;102812.91;;;28.47;35.30
70370;BME280;57790;51.356;-2.906;2022-09-20T11:54:04;102820.13;;;29.13;33.83
70370;BME280;57790;51.356;-2.906;2022-09-20T11:57:13;102810.16;;;29.42;33.54
70370;BME280;57790;51.356;-2.906;2022-09-20T12:00:27;102808.16;;;29.26;33.55
70370;BME280;57790;51.356;-2.906;2022-09-20T12:03:37;102815.03;;;29.28;34.31
70370;BME280;57790;51.356;-2.906;2022-09-20T12:06:39;102810.91;;;29.38;33.39
70370;BME280;57790;51.356;-2.906;2022-09-20T12:09:43;102809.47;;;29.58;32.63
70370;BME280;57790;51.356;-2.906;2022-09-20T12:12:48;102811.56;;;29.91;31.04
70370;BME280;57790;51.356;-2.906;2022-09-20T12:16:11;102808.81;;;29.91;31.57
70370;BME280;57790;51.356;-2.906;2022-09-20T12:22:31;102798.38;;;29.88;30.80
70370;BME280;57790;51.356;-2.906;2022-09-20T12:25:38;102806.06;;;30.15;29.40
70370;BME280;57790;51.356;-2.906;2022-09-20T12:28:41;102797.31;;;30.30;31.13
70370;BME280;57790;51.356;-2.906;2022-09-20T12:31:50;102807.47;;;30.17;29.31
70370;BME280;57790;51.356;-2.906;2022-09-20T12:34:51;102807.13;;;30.02;29.61
70370;BME280;57790;51.356;-2.906;2022-09-20T12:37:51;102804.88;;;30.11;29.17
70370;BME280;57790;51.356;-2.906;2022-09-20T12:41:14;102800.97;;;29.95;28.63
70370;BME280;57790;51.356;-2.906;2022-09-20T12:44:38;102794.28;;;30.14;28.17
70370;BME280;57790;51.356;-2.906;2022-09-20T12:47:39;102792.47;;;30.20;28.31
70370;BME280;57790;51.356;-2.906;2022-09-20T12:51:20;102786.84;;;30.27;29.07
70370;BME280;57790;51.356;-2.906;2022-09-20T12:54:52;102781.50;;;30.48;29.39
70370;BME280;57790;51.356;-2.906;2022-09-20T12:57:58;102783.47;;;30.65;29.10
70370;BME280;57790;51.356;-2.906;2022-09-20T13:07:56;102779.47;;;29.75;30.85
70370;BME280;57790;51.356;-2.906;2022-09-20T13:11:19;102778.31;;;28.59;32.11
70370;BME280;57790;51.356;-2.906;2022-09-20T13:14:25;102777.38;;;29.42;31.29
70370;BME280;57790;51.356;-2.906;2022-09-20T13:17:28;102772.09;;;29.87;30.68
70370;BME280;57790;51.356;-2.906;2022-09-20T13:20:31;102772.06;;;29.99;31.66
70370;BME280;57790;51.356;-2.906;2022-09-20T13:23:44;102772.06;;;29.99;32.35
70370;BME280;57790;51.356;-2.906;2022-09-20T13:26:46;102764.19;;;30.03;30.80
70370;BME280;57790;51.356;-2.906;2022-09-20T13:29:48;102756.59;;;30.05;30.33
70370;BME280;57790;51.356;-2.906;2022-09-20T13:32:49;102763.50;;;29.96;29.96
70370;BME280;57790;51.356;-2.906;2022-09-20T13:35:53;102763.63;;;29.89;29.71
70370;BME280;57790;51.356;-2.906;2022-09-20T13:38:56;102760.47;;;29.80;30.61
70370;BME280;57790;51.356;-2.906;2022-09-20T13:42:03;102765.00;;;29.63;29.55
70370;BME280;57790;51.356;-2.906;2022-09-20T13:45:11;102757.88;;;29.62;29.90
70370;BME280;57790;51.356;-2.906;2022-09-20T13:48:15;102757.88;;;29.62;30.98
70370;BME280;57790;51.356;-2.906;2022-09-20T13:51:18;102756.44;;;29.59;30.69
70370;BME280;57790;51.356;-2.906;2022-09-20T13:54:29;102751.22;;;29.58;30.74
70370;BME280;57790;51.356;-2.906;2022-09-20T13:57:30;102758.56;;;29.46;30.68
70370;BME280;57790;51.356;-2.906;2022-09-20T14:00:31;102748.25;;;29.36;30.84
70370;BME280;57790;51.356;-2.906;2022-09-20T14:03:33;102749.22;;;29.30;31.04
70370;BME280;57790;51.356;-2.906;2022-09-20T14:06:34;102748.13;;;29.19;31.14
70370;BME280;57790;51.356;-2.906;2022-09-20T14:09:37;102749.22;;;29.18;31.41
70370;BME280;57790;51.356;-2.906;2022-09-20T14:12:41;102740.66;;;29.03;31.27
70370;BME280;57790;51.356;-2.906;2022-09-20T14:15:44;102743.13;;;28.93;31.60
70370;BME280;57790;51.356;-2.906;2022-09-20T14:18:46;102742.53;;;28.91;31.48
70370;BME280;57790;51.356;-2.906;2022-09-20T14:21:48;102732.63;;;28.78;30.98
70370;BME280;57790;51.356;-2.906;2022-09-20T14:24:57;102738.22;;;28.71;30.58
70370;BME280;57790;51.356;-2.906;2022-09-20T14:28:18;102738.44;;;28.58;30.94
70370;BME280;57790;51.356;-2.906;2022-09-20T14:34:19;102737.22;;;28.42;30.63
70370;BME280;57790;51.356;-2.906;2022-09-20T14:37:26;102728.97;;;28.31;30.14
70370;BME280;57790;51.356;-2.906;2022-09-20T14:40:29;102733.13;;;28.33;30.27
70370;BME280;57790;51.356;-2.906;2022-09-20T14:43:33;102726.00;;;28.32;31.77
70370;BME280;57790;51.356;-2.906;2022-09-20T14:46:35;102734.50;;;28.24;32.95
70370;BME280;57790;51.356;-2.906;2022-09-20T14:49:41;102729.59;;;28.14;33.24
70370;BME280;57790;51.356;-2.906;2022-09-20T14:52:42;102730.53;;;28.08;33.37
70370;BME280;57790;51.356;-2.906;2022-09-20T14:55:56;102724.56;;;28.00;33.31
70370;BME280;57790;51.356;-2.906;2022-09-20T14:59:06;102721.84;;;28.00;33.30
70370;BME280;57790;51.356;-2.906;2022-09-20T15:02:18;102722.25;;;27.85;34.29
70370;BME280;57790;51.356;-2.906;2022-09-20T15:08:21;102720.03;;;27.75;33.85
70370;BME280;57790;51.356;-2.906;2022-09-20T15:11:22;102720.50;;;27.72;34.27
70370;BME280;57790;51.356;-2.906;2022-09-20T15:14:22;102721.00;;;27.63;33.44
70370;BME280;57790;51.356;-2.906;2022-09-20T15:17:23;102706.88;;;27.54;34.36
70370;BME280;57790;51.356;-2.906;2022-09-20T15:20:23;102704.84;;;27.49;34.62
70370;BME280;57790;51.356;-2.906;2022-09-20T15:23:24;102704.06;;;27.42;33.65
70370;BME280;57790;51.356;-2.906;2022-09-20T15:26:25;102709.19;;;27.32;34.90
70370;BME280;57790;51.356;-2.906;2022-09-20T15:29:25;102704.19;;;27.29;34.94
70370;BME280;57790;51.356;-2.906;2022-09-20T15:32:26;102696.78;;;27.18;35.50
70370;BME280;57790;51.356;-2.906;2022-09-20T15:35:26;102698.28;;;27.14;35.46
70370;BME280;57790;51.356;-2.906;2022-09-20T15:38:27;102693.75;;;27.08;34.83
70370;BME280;57790;51.356;-2.906;2022-09-20T15:41:27;102685.63;;;27.01;35.42
70370;BME280;57790;51.356;-2.906;2022-09-20T15:44:28;102685.31;;;26.91;35.10
70370;BME280;57790;51.356;-2.906;2022-09-20T15:47:29;102687.91;;;26.79;36.00
70370;BME280;57790;51.356;-2.906;2022-09-20T15:50:30;102683.94;;;26.75;36.35
70370;BME280;57790;51.356;-2.906;2022-09-20T15:53:35;102681.53;;;26.67;35.55
70370;BME280;57790;51.356;-2.906;2022-09-20T15:56:36;102676.63;;;26.51;32.90
70370;BME280;57790;51.356;-2.906;2022-09-20T15:59:36;102682.69;;;26.15;31.29
70370;BME280;57790;51.356;-2.906;2022-09-20T16:02:37;102672.56;;;25.97;31.46
70370;BME280;57790;51.356;-2.906;2022-09-20T16:05:37;102674.13;;;25.73;30.94
70370;BME280;57790;51.356;-2.906;2022-09-20T16:08:40;102682.75;;;25.63;32.62
70370;BME280;57790;51.356;-2.906;2022-09-20T16:11:41;102675.25;;;25.52;32.32
70370;BME280;57790;51.356;-2.906;2022-09-20T16:14:41;102671.13;;;25.36;32.78
70370;BME280;57790;51.356;-2.906;2022-09-20T16:17:42;102667.63;;;25.23;33.09
70370;BME280;57790;51.356;-2.906;2022-09-20T16:21:11;102684.53;;;25.11;32.76
70370;BME280;57790;51.356;-2.906;2022-09-20T16:24:12;102675.56;;;24.98;33.21
70370;BME280;57790;51.356;-2.906;2022-09-20T16:27:12;102676.63;;;24.90;33.06
70370;BME280;57790;51.356;-2.906;2022-09-20T16:30:17;102683.09;;;24.76;32.27
70370;BME280;57790;51.356;-2.906;2022-09-20T16:33:18;102674.53;;;24.66;32.63
70370;BME280;57790;51.356;-2.906;2022-09-20T16:36:19;102676.00;;;24.48;32.37
70370;BME280;57790;51.356;-2.906;2022-09-20T16:39:24;102677.22;;;24.39;32.78
70370;BME280;57790;51.356;-2.906;2022-09-20T16:42:26;102677.44;;;24.31;33.90
70370;BME280;57790;51.356;-2.906;2022-09-20T16:45:27;102674.25;;;24.21;33.58
70370;BME280;57790;51.356;-2.906;2022-09-20T16:48:29;102681.94;;;24.11;33.33
70370;BME280;57790;51.356;-2.906;2022-09-20T16:51:33;102678.38;;;24.03;33.74
70370;BME280;57790;51.356;-2.906;2022-09-20T16:54:34;102682.94;;;23.96;34.24
70370;BME280;57790;51.356;-2.906;2022-09-20T16:57:35;102679.78;;;23.86;34.83
70370;BME280;57790;51.356;-2.906;2022-09-20T17:00:37;102682.03;;;23.76;33.98
70370;BME280;57790;51.356;-2.906;2022-09-20T17:03:37;102684.50;;;23.64;34.29
70370;BME280;57790;51.356;-2.906;2022-09-20T17:06:40;102682.41;;;23.60;35.51
70370;BME280;57790;51.356;-2.906;2022-09-20T17:09:42;102683.34;;;23.52;36.33
70370;BME280;57790;51.356;-2.906;2022-09-20T17:12:43;102687.09;;;23.44;35.50
70370;BME280;57790;51.356;-2.906;2022-09-20T17:15:45;102683.06;;;23.34;36.67
70370;BME280;57790;51.356;-2.906;2022-09-20T17:18:53;102689.91;;;23.30;36.91
70370;BME280;57790;51.356;-2.906;2022-09-20T17:24:55;102696.66;;;23.12;37.82
70370;BME280;57790;51.356;-2.906;2022-09-20T17:27:55;102699.94;;;23.08;38.80
70370;BME280;57790;51.356;-2.906;2022-09-20T17:30:59;102704.28;;;23.02;38.06
70370;BME280;57790;51.356;-2.906;2022-09-20T17:34:01;102703.19;;;22.97;39.31
70370;BME280;57790;51.356;-2.906;2022-09-20T17:37:03;102700.25;;;22.92;40.25
70370;BME280;57790;51.356;-2.906;2022-09-20T17:40:04;102696.63;;;22.84;39.86
70370;BME280;57790;51.356;-2.906;2022-09-20T17:43:04;102700.94;;;22.79;39.64
70370;BME280;57790;51.356;-2.906;2022-09-20T17:46:19;102698.75;;;22.68;40.85
70370;BME280;57790;51.356;-2.906;2022-09-20T17:49:22;102699.59;;;22.68;39.49
70370;BME280;57790;51.356;-2.906;2022-09-20T17:52:23;102712.09;;;22.69;40.15
70370;BME280;57790;51.356;-2.906;2022-09-20T17:55:23;102704.38;;;22.66;40.31
70370;BME280;57790;51.356;-2.906;2022-09-20T17:58:24;102704.31;;;22.60;40.24
70370;BME280;57790;51.356;-2.906;2022-09-20T18:01:30;102709.44;;;22.54;41.02
70370;BME280;57790;51.356;-2.906;2022-09-20T18:04:31;102705.28;;;22.52;41.79
70370;BME280;57790;51.356;-2.906;2022-09-20T18:07:31;102716.88;;;22.46;41.94
70370;BME280;57790;51.356;-2.906;2022-09-20T18:10:33;102717.81;;;22.38;42.81
70370;BME280;57790;51.356;-2.906;2022-09-20T18:13:35;102718.50;;;22.25;41.57
70370;BME280;57790;51.356;-2.906;2022-09-20T18:16:35;102717.63;;;22.18;40.24
70370;BME280;57790;51.356;-2.906;2022-09-20T18:19:36;102725.53;;;22.20;40.61
70370;BME280;57790;51.356;-2.906;2022-09-20T18:22:37;102723.75;;;22.12;40.79
70370;BME280;57790;51.356;-2.906;2022-09-20T18:25:38;102719.69;;;22.02;41.54
70370;BME280;57790;51.356;-2.906;2022-09-20T18:29:01;102722.66;;;21.92;42.28
70370;BME280;57790;51.356;-2.906;2022-09-20T18:32:03;102721.66;;;21.78;43.00
70370;BME280;57790;51.356;-2.906;2022-09-20T18:35:04;102720.38;;;21.74;43.22
70370;BME280;57790;51.356;-2.906;2022-09-20T18:38:05;102717.94;;;21.64;43.79
70370;BME280;57790;51.356;-2.906;2022-09-20T18:41:06;102725.78;;;21.59;44.83
70370;BME280;57790;51.356;-2.906;2022-09-20T18:44:07;102724.19;;;21.50;43.18
70370;BME280;57790;51.356;-2.906;2022-09-20T18:47:11;102723.47;;;21.42;44.11
70370;BME280;57790;51.356;-2.906;2022-09-20T18:50:12;102722.69;;;21.33;44.18
70370;BME280;57790;51.356;-2.906;2022-09-20T18:53:12;102729.31;;;21.30;44.04
70370;BME280;57790;51.356;-2.906;2022-09-20T18:56:26;102737.94;;;21.26;45.44
70370;BME280;57790;51.356;-2.906;2022-09-20T18:59:28;102737.94;;;21.26;44.29
70370;BME280;57790;51.356;-2.906;2022-09-20T19:06:02;102728.88;;;21.19;45.54
70370;BME280;57790;51.356;-2.906;2022-09-20T19:09:12;102735.31;;;21.18;46.75
70370;BME280;57790;51.356;-2.906;2022-09-20T19:22:36;102735.38;;;21.09;45.69
70370;BME280;57790;51.356;-2.906;2022-09-20T19:25:46;102734.25;;;21.04;46.10
70370;BME280;57790;51.356;-2.906;2022-09-20T19:28:48;102744.56;;;21.00;45.97
70370;BME280;57790;51.356;-2.906;2022-09-20T19:31:50;102743.59;;;20.93;45.70
70370;BME280;57790;51.356;-2.906;2022-09-20T19:34:54;102753.28;;;20.88;45.86
70370;BME280;57790;51.356;-2.906;2022-09-20T19:47:54;102754.91;;;20.74;47.31
70370;BME280;57790;51.356;-2.906;2022-09-20T19:50:57;102752.06;;;20.67;47.77
70370;BME280;57790;51.356;-2.906;2022-09-20T19:54:02;102751.31;;;20.59;47.96
70370;BME280;57790;51.356;-2.906;2022-09-20T19:57:06;102760.03;;;20.61;49.14
70370;BME280;57790;51.356;-2.906;2022-09-20T20:00:13;102759.03;;;20.62;49.05
70370;BME280;57790;51.356;-2.906;2022-09-20T20:03:15;102768.50;;;20.58;49.48
70370;BME280;57790;51.356;-2.906;2022-09-20T20:06:34;102775.25;;;20.54;49.58
70370;BME280;57790;51.356;-2.906;2022-09-20T20:09:50;102778.00;;;20.45;49.70
70370;BME280;57790;51.356;-2.906;2022-09-20T20:16:06;102774.47;;;20.37;50.19
70370;BME280;57790;51.356;-2.906;2022-09-20T20:26:08;102790.97;;;20.11;50.18